createdAt,value
2023-06-17T00:00:23.023Z,83.72
2023-06-17T00:01:22.860Z,83.61
2023-06-17T00:02:23.054Z,83.61
2023-06-17T00:03:22.815Z,83.61
2023-06-17T00:04:22.731Z,83.72
2023-06-17T00:05:22.665Z,83.82
2023-06-17T00:06:23.927Z,83.82
2023-06-17T00:07:22.974Z,84.12
2023-06-17T00:08:22.656Z,84.12
2023-06-17T00:09:22.998Z,84.02
2023-06-17T00:10:22.745Z,83.92
2023-06-17T00:11:22.615Z,84.12
2023-06-17T00:12:22.619Z,83.92
2023-06-17T00:13:22.618Z,83.92
2023-06-17T00:14:23.572Z,83.92
2023-06-17T00:15:22.588Z,83.82
2023-06-17T00:16:22.533Z,83.96
2023-06-17T00:17:22.619Z,83.96
2023-06-17T00:18:22.549Z,84.16
2023-06-17T00:19:22.510Z,84.16
2023-06-17T00:20:22.773Z,84.27
2023-06-17T00:21:22.495Z,84.36
2023-06-17T00:22:22.528Z,84.36
2023-06-17T00:23:22.554Z,84.47
2023-06-17T00:24:22.522Z,84.56
2023-06-17T00:25:22.495Z,84.67
2023-06-17T00:26:22.417Z,84.67
2023-06-17T00:27:22.430Z,84.67
2023-06-17T00:28:22.389Z,84.67
2023-06-17T00:29:22.406Z,85.11
2023-06-17T00:30:22.707Z,85.42
2023-06-17T00:31:22.361Z,85.21
2023-06-17T00:32:22.409Z,85.21
2023-06-17T00:33:22.355Z,85.42
2023-06-17T00:34:22.328Z,85.52
2023-06-17T00:35:22.302Z,85.82
2023-06-17T00:36:22.323Z,85.82
2023-06-17T00:37:22.295Z,85.82
2023-06-17T00:38:22.308Z,85.82
2023-06-17T00:39:22.262Z,86.13
2023-06-17T00:40:22.547Z,86.02
2023-06-17T00:41:22.315Z,86.02
2023-06-17T00:42:22.235Z,85.82
2023-06-17T00:43:22.253Z,85.82
2023-06-17T00:44:22.275Z,85.93
2023-06-17T00:45:22.195Z,85.93
2023-06-17T00:46:22.211Z,85.72
2023-06-17T00:47:22.222Z,85.72
2023-06-17T00:48:22.232Z,85.82
2023-06-17T00:49:22.166Z,86.02
2023-06-17T00:50:22.371Z,86.13
2023-06-17T00:51:22.153Z,85.93
2023-06-17T00:52:40.316Z,85.82
2023-06-17T00:53:23.103Z,86.13
2023-06-17T00:54:22.130Z,86.22
2023-06-17T00:55:23.642Z,86.13
2023-06-17T00:56:22.126Z,86.22
2023-06-17T00:57:22.073Z,86.02
2023-06-17T00:58:22.057Z,85.93
2023-06-17T00:59:22.043Z,85.72
2023-06-17T01:00:22.315Z,85.82
2023-06-17T01:01:22.060Z,85.82
2023-06-17T01:02:22.016Z,85.62
2023-06-17T01:03:22.146Z,85.52
2023-06-17T01:04:22.009Z,85.62
2023-06-17T01:05:21.997Z,85.62
2023-06-17T01:06:21.956Z,85.62
2023-06-17T01:07:21.976Z,85.42
2023-06-17T01:08:21.964Z,85.01
2023-06-17T01:09:21.931Z,85.01
2023-06-17T01:10:22.220Z,85.11
2023-06-17T01:11:21.916Z,85.11
2023-06-17T01:12:21.890Z,85.21
2023-06-17T01:13:21.860Z,85.01
2023-06-17T01:14:21.892Z,84.50
2023-06-17T01:15:21.867Z,84.61
2023-06-17T01:16:21.910Z,84.70
2023-06-17T01:17:21.865Z,84.81
2023-06-17T01:18:21.852Z,84.91
2023-06-17T01:19:21.800Z,85.11
2023-06-17T01:20:22.101Z,85.46
2023-06-17T01:21:21.797Z,85.46
2023-06-17T01:22:21.806Z,85.46
2023-06-17T01:23:21.777Z,85.56
2023-06-17T01:24:21.808Z,85.56
2023-06-17T01:25:21.838Z,85.56
2023-06-17T01:26:21.748Z,85.56
2023-06-17T01:27:21.833Z,85.56
2023-06-17T01:28:21.890Z,85.46
2023-06-17T01:29:21.698Z,85.46
2023-06-17T01:30:21.899Z,85.46
2023-06-17T01:31:21.750Z,84.95
2023-06-17T01:32:21.698Z,84.95
2023-06-17T01:33:21.676Z,84.95
2023-06-17T01:34:21.621Z,85.05
2023-06-17T01:35:21.647Z,85.05
2023-06-17T01:36:21.648Z,85.05
2023-06-17T01:37:21.592Z,84.95
2023-06-17T01:38:21.583Z,84.89
2023-06-17T01:39:21.561Z,85.19
2023-06-17T01:40:22.015Z,85.80
2023-06-17T01:41:21.589Z,85.96
2023-06-17T01:42:21.549Z,85.76
2023-06-17T01:43:21.545Z,85.90
2023-06-17T01:44:21.557Z,85.90
2023-06-17T01:45:21.535Z,85.90
2023-06-17T01:46:21.520Z,86.00
2023-06-17T01:47:21.505Z,85.80
2023-06-17T01:48:21.469Z,85.70
2023-06-17T01:49:21.512Z,85.80
2023-06-17T01:50:21.684Z,85.80
2023-06-17T01:51:21.459Z,86.00
2023-06-17T01:52:21.409Z,85.80
2023-06-17T01:53:21.408Z,85.80
2023-06-17T01:54:21.428Z,85.70
2023-06-17T01:55:21.405Z,85.50
2023-06-17T01:56:21.450Z,85.19
2023-06-17T01:57:21.347Z,84.78
2023-06-17T01:58:21.343Z,84.69
2023-06-17T01:59:21.327Z,84.48
2023-06-17T02:00:21.636Z,84.48
2023-06-17T02:01:21.305Z,84.44
2023-06-17T02:02:21.342Z,84.55
2023-06-17T02:03:21.451Z,84.78
2023-06-17T02:04:21.316Z,84.75
2023-06-17T02:05:21.365Z,84.75
2023-06-17T02:06:21.284Z,84.85
2023-06-17T02:07:21.260Z,85.25
2023-06-17T02:08:21.270Z,85.25
2023-06-17T02:09:21.251Z,85.25
2023-06-17T02:10:21.523Z,85.36
2023-06-17T02:11:21.205Z,85.46
2023-06-17T02:12:21.188Z,85.25
2023-06-17T02:13:21.246Z,84.95
2023-06-17T02:14:21.161Z,84.85
2023-06-17T02:15:21.168Z,84.75
2023-06-17T02:16:21.259Z,84.75
2023-06-17T02:17:21.125Z,84.85
2023-06-17T02:18:21.134Z,84.95
2023-06-17T02:19:21.131Z,85.05
2023-06-17T02:20:21.423Z,85.05
2023-06-17T02:21:21.118Z,85.15
2023-06-17T02:22:21.107Z,85.36
2023-06-17T02:23:21.144Z,85.46
2023-06-17T02:24:21.099Z,85.15
2023-06-17T02:25:21.090Z,85.15
2023-06-17T02:26:21.113Z,85.15
2023-06-17T02:27:21.027Z,84.85
2023-06-17T02:28:21.000Z,84.75
2023-06-17T02:29:21.063Z,84.55
2023-06-17T02:30:21.274Z,84.55
2023-06-17T02:31:21.015Z,84.64
2023-06-17T02:32:20.965Z,84.64
2023-06-17T02:33:20.952Z,84.75
2023-06-17T02:34:20.928Z,84.85
2023-06-17T02:35:21.000Z,85.36
2023-06-17T02:36:20.911Z,85.36
2023-06-17T02:37:20.893Z,85.46
2023-06-17T02:38:20.893Z,85.56
2023-06-17T02:39:20.916Z,85.46
2023-06-17T02:40:21.131Z,85.36
2023-06-17T02:41:20.873Z,85.46
2023-06-17T02:42:20.855Z,85.36
2023-06-17T02:43:20.852Z,85.25
2023-06-17T02:44:20.808Z,85.46
2023-06-17T02:45:20.847Z,85.36
2023-06-17T02:46:20.876Z,85.36
2023-06-17T02:47:20.804Z,85.66
2023-06-17T02:48:20.794Z,85.96
2023-06-17T02:49:20.763Z,85.76
2023-06-17T02:50:21.078Z,85.96
2023-06-17T02:51:20.747Z,86.27
2023-06-17T02:52:20.768Z,86.16
2023-06-17T02:53:20.757Z,86.27
2023-06-17T02:54:20.697Z,86.16
2023-06-17T02:55:20.730Z,86.16
2023-06-17T02:56:20.689Z,86.07
2023-06-17T02:57:20.677Z,85.86
2023-06-17T02:58:20.683Z,85.96
2023-06-17T02:59:20.635Z,85.86
2023-06-17T03:00:20.854Z,85.86
2023-06-17T03:01:20.692Z,85.56
2023-06-17T03:02:20.680Z,85.66
2023-06-17T03:03:20.665Z,85.86
2023-06-17T03:04:20.601Z,85.96
2023-06-17T03:05:20.612Z,85.86
2023-06-17T03:06:20.569Z,85.76
2023-06-17T03:07:20.594Z,85.56
2023-06-17T03:08:20.568Z,85.50
2023-06-17T03:09:20.537Z,85.39
2023-06-17T03:10:20.846Z,85.19
2023-06-17T03:11:20.521Z,84.89
2023-06-17T03:12:20.565Z,84.89
2023-06-17T03:13:20.474Z,84.69
2023-06-17T03:14:20.661Z,84.48
2023-06-17T03:15:20.536Z,84.78
2023-06-17T03:16:20.447Z,85.30
2023-06-17T03:17:20.459Z,85.80
2023-06-17T03:18:20.831Z,85.60
2023-06-17T03:19:20.430Z,85.19
2023-06-17T03:20:20.836Z,84.99
2023-06-17T03:21:20.377Z,84.89
2023-06-17T03:22:20.428Z,84.89
2023-06-17T03:23:20.381Z,84.89
2023-06-17T03:24:20.412Z,84.99
2023-06-17T03:25:20.386Z,85.09
2023-06-17T03:26:20.333Z,84.78
2023-06-17T03:27:20.343Z,84.78
2023-06-17T03:28:20.343Z,84.69
2023-06-17T03:29:20.308Z,84.78
2023-06-17T03:30:20.521Z,84.89
2023-06-17T03:31:20.362Z,84.64
2023-06-17T03:32:20.267Z,84.64
2023-06-17T03:33:20.253Z,84.55
2023-06-17T03:34:20.268Z,84.24
2023-06-17T03:35:20.216Z,84.04
2023-06-17T03:36:20.270Z,83.73
2023-06-17T03:37:20.211Z,83.94
2023-06-17T03:38:20.195Z,84.04
2023-06-17T03:39:20.226Z,84.14
2023-06-17T03:40:20.390Z,84.14
2023-06-17T03:41:20.160Z,84.14
2023-06-17T03:42:20.199Z,83.83
2023-06-17T03:43:20.155Z,83.73
2023-06-17T03:44:20.149Z,83.59
2023-06-17T03:45:20.124Z,83.80
2023-06-17T03:46:20.114Z,83.90
2023-06-17T03:47:20.119Z,84.00
2023-06-17T03:48:20.099Z,83.90
2023-06-17T03:49:20.152Z,83.69
2023-06-17T03:50:20.439Z,83.39
2023-06-17T03:51:20.062Z,83.18
2023-06-17T03:52:20.067Z,82.78
2023-06-17T03:53:20.041Z,82.58
2023-06-17T03:54:20.055Z,82.38
2023-06-17T03:55:20.056Z,82.17
2023-06-17T03:56:20.044Z,81.93
2023-06-17T03:57:19.997Z,81.93
2023-06-17T03:58:19.979Z,82.24
2023-06-17T03:59:21.033Z,82.54
2023-06-17T04:00:20.247Z,82.75
2023-06-17T04:01:20.018Z,82.64
2023-06-17T04:02:20.017Z,82.54
2023-06-17T04:03:20.029Z,82.44
2023-06-17T04:04:19.919Z,82.54
2023-06-17T04:05:19.902Z,82.75
2023-06-17T04:06:19.880Z,82.95
2023-06-17T04:07:19.852Z,83.04
2023-06-17T04:08:19.866Z,82.84
2023-06-17T04:09:19.843Z,82.84
2023-06-17T04:10:19.869Z,83.09
2023-06-17T04:11:19.805Z,83.18
2023-06-17T04:12:19.806Z,83.04
2023-06-17T04:13:19.862Z,83.15
2023-06-17T04:14:19.805Z,82.95
2023-06-17T04:15:19.758Z,82.95
2023-06-17T04:16:19.767Z,82.64
2023-06-17T04:17:19.751Z,82.75
2023-06-17T04:18:19.842Z,82.54
2023-06-17T04:19:19.763Z,82.34
2023-06-17T04:20:19.883Z,82.14
2023-06-17T04:21:19.725Z,81.99
2023-06-17T04:22:19.724Z,81.90
2023-06-17T04:23:19.922Z,81.99
2023-06-17T04:25:29.857Z,81.79
2023-06-17T04:26:29.812Z,81.69
2023-06-17T04:27:29.861Z,81.69
2023-06-17T04:28:29.803Z,81.69
2023-06-17T04:29:29.788Z,81.35
2023-06-17T04:30:29.792Z,81.15
2023-06-17T04:31:29.798Z,81.05
2023-06-17T04:32:29.777Z,81.05
2023-06-17T04:33:29.780Z,81.05
2023-06-17T04:34:29.750Z,80.94
2023-06-17T04:35:29.764Z,80.94
2023-06-17T04:36:29.696Z,81.05
2023-06-17T04:37:29.682Z,81.39
2023-06-17T04:38:29.732Z,81.35
2023-06-17T04:39:29.692Z,81.15
2023-06-17T04:40:29.651Z,80.94
2023-06-17T04:41:29.695Z,80.64
2023-06-17T04:42:29.636Z,80.54
2023-06-17T04:43:29.642Z,80.64
2023-06-17T04:44:29.605Z,80.74
2023-06-17T04:45:29.671Z,80.74
2023-06-17T04:46:29.656Z,80.64
2023-06-17T04:47:29.649Z,80.64
2023-06-17T04:48:29.567Z,80.74
2023-06-17T04:49:29.565Z,80.84
2023-06-17T04:50:29.576Z,80.84
2023-06-17T04:51:29.676Z,80.84
2023-06-17T04:52:29.541Z,80.74
2023-06-17T04:53:29.522Z,80.74
2023-06-17T04:54:29.541Z,80.50
2023-06-17T04:55:29.490Z,80.84
2023-06-17T04:56:29.477Z,80.84
2023-06-17T04:57:29.494Z,80.84
2023-06-17T04:58:29.493Z,80.84
2023-06-17T04:59:29.439Z,80.84
2023-06-17T05:00:29.441Z,80.80
2023-06-17T05:01:29.530Z,80.60
2023-06-17T05:02:29.482Z,80.50
2023-06-17T05:03:29.405Z,80.40
2023-06-17T05:04:29.391Z,80.20
2023-06-17T05:05:29.386Z,80.30
2023-06-17T05:06:29.369Z,80.10
2023-06-17T05:07:29.381Z,80.10
2023-06-17T05:08:29.342Z,80.30
2023-06-17T05:09:29.373Z,80.20
2023-06-17T05:10:29.330Z,80.10
2023-06-17T05:11:29.351Z,79.75
2023-06-17T05:12:29.306Z,79.66
2023-06-17T05:13:29.275Z,79.55
2023-06-17T05:14:29.275Z,79.55
2023-06-17T05:15:29.286Z,79.25
2023-06-17T05:16:29.276Z,78.95
2023-06-17T05:17:29.290Z,78.81
2023-06-17T05:18:29.218Z,78.61
2023-06-17T05:19:29.208Z,78.30
2023-06-17T05:20:29.228Z,78.06
2023-06-17T05:21:29.185Z,78.00
2023-06-17T05:22:29.214Z,78.00
2023-06-17T05:23:29.191Z,78.00
2023-06-17T05:24:29.247Z,77.76
2023-06-17T05:25:29.360Z,78.10
2023-06-17T05:26:29.139Z,78.41
2023-06-17T05:27:29.135Z,78.61
2023-06-17T05:28:29.110Z,78.61
2023-06-17T05:29:29.103Z,78.85
2023-06-17T05:30:29.155Z,79.15
2023-06-17T05:31:29.082Z,79.05
2023-06-17T05:32:29.093Z,79.05
2023-06-17T05:33:29.076Z,78.50
2023-06-17T05:34:29.044Z,77.66
2023-06-17T05:35:29.056Z,76.92
2023-06-17T05:36:29.042Z,76.48
2023-06-17T05:37:29.015Z,75.67
2023-06-17T05:38:29.046Z,75.13
2023-06-17T05:39:29.018Z,74.49
2023-06-17T05:40:28.978Z,73.88
2023-06-17T05:41:28.985Z,72.57
2023-06-17T05:42:28.955Z,69.65
2023-06-17T05:43:28.948Z,67.32
2023-06-17T05:44:28.977Z,64.18
2023-06-17T05:45:28.909Z,62.29
2023-06-17T05:46:28.954Z,58.88
2023-06-17T05:47:28.933Z,56.93
2023-06-17T05:48:28.888Z,56.08
2023-06-17T05:49:28.868Z,54.13
2023-06-17T05:50:28.863Z,53.88
2023-06-17T05:51:28.905Z,52.39
2023-06-17T05:52:28.815Z,52.29
2023-06-17T05:53:28.831Z,51.35
2023-06-17T05:54:28.820Z,50.40
2023-06-17T05:55:28.791Z,49.29
2023-06-17T05:56:28.811Z,48.90
2023-06-17T05:57:28.798Z,48.38
2023-06-17T05:58:28.787Z,47.74
2023-06-17T05:59:28.746Z,46.62
2023-06-17T06:00:28.739Z,46.11
2023-06-17T06:01:28.784Z,46.18
2023-06-17T06:02:28.773Z,45.68
2023-06-17T06:03:28.722Z,45.67
2023-06-17T06:04:28.701Z,46.40
2023-06-17T06:05:28.672Z,45.35
2023-06-17T06:06:28.704Z,44.42
2023-06-17T06:07:28.691Z,43.38
2023-06-17T06:08:28.666Z,42.99
2023-06-17T06:09:28.632Z,43.82
2023-06-17T06:10:28.702Z,43.31
2023-06-17T06:11:28.665Z,42.68
2023-06-17T06:12:28.642Z,42.16
2023-06-17T06:13:28.631Z,41.96
2023-06-17T06:14:28.573Z,41.75
2023-06-17T06:15:28.582Z,41.04
2023-06-17T06:16:28.592Z,40.74
2023-06-17T06:17:28.632Z,40.25
2023-06-17T06:18:28.529Z,40.16
2023-06-17T06:19:28.550Z,39.94
2023-06-17T06:20:28.613Z,39.74
2023-06-17T06:21:28.512Z,39.44
2023-06-17T06:22:28.508Z,40.03
2023-06-17T06:23:28.524Z,39.54
2023-06-17T06:24:28.523Z,39.78
2023-06-17T06:25:28.459Z,40.19
2023-06-17T06:26:28.479Z,42.58
2023-06-17T06:27:28.457Z,44.92
2023-06-17T06:28:28.492Z,44.68
2023-06-17T06:29:28.445Z,43.25
2023-06-17T06:30:28.417Z,44.82
2023-06-17T06:31:28.385Z,45.97
2023-06-17T06:32:28.462Z,47.43
2023-06-17T06:33:28.399Z,48.54
2023-06-17T06:34:28.424Z,49.80
2023-06-17T06:35:28.350Z,50.82
2023-06-17T06:36:28.328Z,51.67
2023-06-17T06:37:28.340Z,50.58
2023-06-17T06:38:28.349Z,47.63
2023-06-17T06:39:28.335Z,44.06
2023-06-17T06:40:28.421Z,42.52
2023-06-17T06:41:28.270Z,42.52
2023-06-17T06:42:28.286Z,41.38
2023-06-17T06:43:28.290Z,40.39
2023-06-17T06:44:28.308Z,41.12
2023-06-17T06:45:28.294Z,42.48
2023-06-17T06:46:28.375Z,44.23
2023-06-17T06:47:28.273Z,45.87
2023-06-17T06:48:28.235Z,46.61
2023-06-17T06:49:28.211Z,47.85
2023-06-17T06:50:28.255Z,49.08
2023-06-17T06:51:28.178Z,48.72
2023-06-17T06:52:28.176Z,46.42
2023-06-17T06:53:28.135Z,44.24
2023-06-17T06:54:28.164Z,42.38
2023-06-17T06:55:28.140Z,40.16
2023-06-17T06:56:28.165Z,40.03
2023-06-17T06:57:28.093Z,38.85
2023-06-17T06:58:28.101Z,39.01
2023-06-17T06:59:28.079Z,38.52
2023-06-17T07:00:28.073Z,38.70
2023-06-17T07:01:28.226Z,37.78
2023-06-17T07:02:28.092Z,37.07
2023-06-17T07:03:28.068Z,36.57
2023-06-17T07:04:28.140Z,36.06
2023-06-17T07:05:28.028Z,35.63
2023-06-17T07:06:28.012Z,35.30
2023-06-17T07:07:28.027Z,33.92
2023-06-17T07:08:27.975Z,34.72
2023-06-17T07:09:27.991Z,34.89
2023-06-17T07:10:27.952Z,34.19
2023-06-17T07:11:27.960Z,33.69
2023-06-17T07:12:27.942Z,33.48
2023-06-17T07:13:27.958Z,32.96
2023-06-17T07:14:27.946Z,32.18
2023-06-17T07:15:27.900Z,32.45
2023-06-17T07:16:27.953Z,32.26
2023-06-17T07:17:27.920Z,31.60
2023-06-17T07:18:27.891Z,32.65
2023-06-17T07:19:27.907Z,33.75
2023-06-17T07:20:27.864Z,34.18
2023-06-17T07:21:27.868Z,34.59
2023-06-17T07:22:27.849Z,35.41
2023-06-17T07:23:27.852Z,36.65
2023-06-17T07:24:27.861Z,37.26
2023-06-17T07:25:27.814Z,36.22
2023-06-17T07:26:27.850Z,35.80
2023-06-17T07:27:27.793Z,34.98
2023-06-17T07:28:27.767Z,35.21
2023-06-17T07:29:27.746Z,35.41
2023-06-17T07:30:27.796Z,36.34
2023-06-17T07:31:27.800Z,36.29
2023-06-17T07:32:27.834Z,35.52
2023-06-17T07:33:27.707Z,37.71
2023-06-17T07:34:27.696Z,40.07
2023-06-17T07:35:27.699Z,40.76
2023-06-17T07:36:27.742Z,41.17
2023-06-17T07:37:27.692Z,41.79
2023-06-17T07:38:27.668Z,41.30
2023-06-17T07:39:27.637Z,41.71
2023-06-17T07:40:27.633Z,39.62
2023-06-17T07:41:27.628Z,37.95
2023-06-17T07:42:27.649Z,37.03
2023-06-17T07:43:27.596Z,35.89
2023-06-17T07:44:27.622Z,34.26
2023-06-17T07:45:27.574Z,34.16
2023-06-17T07:46:27.714Z,33.85
2023-06-17T07:47:27.625Z,32.94
2023-06-17T07:48:27.556Z,32.60
2023-06-17T07:49:27.554Z,31.69
2023-06-17T07:50:27.544Z,31.30
2023-06-17T07:51:27.526Z,31.17
2023-06-17T07:52:27.527Z,31.41
2023-06-17T07:53:27.500Z,31.54
2023-06-17T07:54:27.557Z,31.72
2023-06-17T07:55:27.520Z,31.01
2023-06-17T07:56:27.482Z,30.99
2023-06-17T07:57:27.470Z,31.65
2023-06-17T07:58:27.444Z,33.82
2023-06-17T07:59:27.463Z,35.78
2023-06-17T08:00:27.461Z,36.71
2023-06-17T08:01:27.468Z,37.08
2023-06-17T08:02:27.566Z,35.75
2023-06-17T08:03:27.481Z,36.79
2023-06-17T08:04:27.390Z,35.75
2023-06-17T08:05:27.437Z,33.89
2023-06-17T08:06:27.404Z,32.24
2023-06-17T08:07:27.364Z,31.35
2023-06-17T08:08:27.351Z,31.12
2023-06-17T08:09:27.366Z,31.23
2023-06-17T08:10:27.339Z,30.84
2023-06-17T08:11:27.355Z,32.70
2023-06-17T08:12:27.308Z,34.13
2023-06-17T08:13:27.322Z,35.03
2023-06-17T08:14:27.296Z,32.99
2023-06-17T08:15:27.279Z,32.16
2023-06-17T08:16:27.339Z,31.04
2023-06-17T08:17:27.309Z,30.41
2023-06-17T08:18:27.278Z,29.42
2023-06-17T08:19:27.241Z,29.44
2023-06-17T08:20:27.219Z,29.64
2023-06-17T08:21:27.232Z,29.66
2023-06-17T08:22:27.229Z,29.74
2023-06-17T08:23:27.227Z,29.32
2023-06-17T08:24:27.228Z,29.14
2023-06-17T08:25:27.194Z,30.27
2023-06-17T08:26:27.172Z,29.95
2023-06-17T08:27:27.664Z,29.93
2023-06-17T08:28:27.147Z,29.82
2023-06-17T08:29:27.161Z,28.70
2023-06-17T08:30:27.155Z,28.29
2023-06-17T08:31:27.110Z,28.30
2023-06-17T08:32:27.133Z,28.11
2023-06-17T08:33:27.082Z,27.51
2023-06-17T08:34:27.110Z,27.70
2023-06-17T08:35:27.095Z,27.80
2023-06-17T08:36:27.118Z,27.42
2023-06-17T08:37:27.084Z,27.53
2023-06-17T08:38:27.049Z,27.43
2023-06-17T08:39:27.039Z,28.04
2023-06-17T08:40:27.018Z,28.04
2023-06-17T08:41:27.021Z,28.33
2023-06-17T08:42:27.012Z,27.62
2023-06-17T08:43:27.009Z,27.32
2023-06-17T08:44:26.981Z,27.32
2023-06-17T08:45:27.036Z,27.51
2023-06-17T08:46:27.045Z,27.51
2023-06-17T08:47:27.096Z,27.55
2023-06-17T08:48:26.956Z,27.93
2023-06-17T08:49:26.950Z,27.62
2023-06-17T08:50:26.960Z,27.72
2023-06-17T08:51:26.953Z,27.76
2023-06-17T08:52:26.938Z,28.44
2023-06-17T08:53:26.931Z,28.07
2023-06-17T08:54:26.882Z,28.45
2023-06-17T08:55:26.909Z,28.47
2023-06-17T08:56:26.892Z,28.49
2023-06-17T08:57:26.886Z,29.20
2023-06-17T08:58:26.906Z,29.18
2023-06-17T08:59:26.834Z,29.70
2023-06-17T09:00:26.851Z,29.57
2023-06-17T09:01:26.971Z,29.00
2023-06-17T09:02:26.861Z,28.88
2023-06-17T09:03:26.837Z,28.16
2023-06-17T09:04:26.844Z,28.26
2023-06-17T09:05:26.865Z,27.65
2023-06-17T09:06:26.774Z,27.34
2023-06-17T09:07:26.794Z,26.65
2023-06-17T09:08:26.772Z,26.39
2023-06-17T09:09:26.744Z,27.40
2023-06-17T09:10:26.752Z,27.00
2023-06-17T09:11:26.718Z,26.28
2023-06-17T09:12:26.747Z,25.86
2023-06-17T09:13:26.755Z,25.97
2023-06-17T09:14:26.702Z,25.18
2023-06-17T09:15:26.709Z,25.99
2023-06-17T09:16:26.744Z,25.89
2023-06-17T09:17:26.721Z,26.40
2023-06-17T09:18:26.673Z,26.69
2023-06-17T09:19:26.652Z,27.12
2023-06-17T09:20:26.691Z,28.68
2023-06-17T09:21:26.672Z,28.75
2023-06-17T09:22:26.669Z,28.25
2023-06-17T09:23:26.606Z,29.07
2023-06-17T09:24:26.630Z,30.40
2023-06-17T09:25:26.625Z,31.66
2023-06-17T09:26:26.593Z,33.49
2023-06-17T09:27:26.593Z,34.61
2023-06-17T09:28:26.604Z,35.14
2023-06-17T09:29:26.606Z,35.53
2023-06-17T09:30:26.551Z,35.45
2023-06-17T09:31:26.561Z,35.75
2023-06-17T09:32:26.623Z,36.04
2023-06-17T09:33:26.525Z,36.24
2023-06-17T09:34:26.496Z,36.34
2023-06-17T09:35:26.499Z,36.04
2023-06-17T09:36:26.473Z,36.14
2023-06-17T09:37:26.501Z,36.12
2023-06-17T09:38:26.501Z,35.20
2023-06-17T09:39:26.444Z,35.22
2023-06-17T09:40:26.429Z,35.83
2023-06-17T09:41:26.423Z,36.36
2023-06-17T09:42:26.425Z,37.18
2023-06-17T09:43:28.470Z,37.18
2023-06-17T09:44:26.424Z,37.79
2023-06-17T09:45:26.389Z,38.31
2023-06-17T09:46:26.503Z,38.62
2023-06-17T09:47:26.386Z,38.92
2023-06-17T09:48:26.354Z,38.92
2023-06-17T09:49:26.362Z,39.22
2023-06-17T09:50:26.413Z,39.42
2023-06-17T09:51:26.358Z,39.42
2023-06-17T09:52:26.298Z,39.31
2023-06-17T09:53:26.366Z,39.12
2023-06-17T09:54:26.304Z,39.02
2023-06-17T09:55:26.312Z,39.22
2023-06-17T09:56:26.268Z,39.31
2023-06-17T09:57:26.245Z,39.20
2023-06-17T09:58:26.256Z,39.51
2023-06-17T09:59:26.278Z,40.12
2023-06-17T10:00:26.375Z,40.64
2023-06-17T10:01:26.223Z,40.96
2023-06-17T10:02:26.203Z,41.06
2023-06-17T10:03:26.420Z,41.16
2023-06-17T10:04:26.196Z,41.36
2023-06-17T10:05:26.184Z,41.16
2023-06-17T10:06:26.165Z,41.24
2023-06-17T10:07:26.152Z,41.04
2023-06-17T10:08:26.169Z,40.94
2023-06-17T10:09:26.144Z,41.14
2023-06-17T10:10:26.125Z,41.04
2023-06-17T10:11:26.131Z,40.72
2023-06-17T10:12:26.090Z,40.94
2023-06-17T10:13:26.109Z,41.04
2023-06-17T10:14:26.132Z,40.84
2023-06-17T10:15:26.092Z,41.14
2023-06-17T10:16:26.072Z,41.53
2023-06-17T10:17:26.073Z,41.73
2023-06-17T10:18:26.044Z,41.24
2023-06-17T10:19:26.045Z,41.12
2023-06-17T10:20:26.215Z,41.02
2023-06-17T10:21:26.069Z,40.92
2023-06-17T10:22:26.009Z,40.90
2023-06-17T10:23:26.002Z,40.80
2023-06-17T10:24:26.086Z,41.10
2023-06-17T10:25:25.962Z,40.90
2023-06-17T10:26:25.952Z,40.90
2023-06-17T10:27:25.962Z,40.45
2023-06-17T10:28:25.988Z,39.93
2023-06-17T10:29:25.947Z,39.34
2023-06-17T10:30:25.942Z,39.42
2023-06-17T10:31:27.593Z,39.11
2023-06-17T10:32:26.044Z,39.11
2023-06-17T10:33:25.875Z,39.00
2023-06-17T10:34:25.946Z,39.22
2023-06-17T10:35:25.856Z,39.22
2023-06-17T10:36:25.891Z,38.79
2023-06-17T10:37:25.829Z,38.06
2023-06-17T10:38:25.804Z,37.14
2023-06-17T10:39:25.844Z,36.22
2023-06-17T10:40:26.175Z,34.78
2023-06-17T10:41:25.798Z,34.80
2023-06-17T10:42:25.793Z,34.06
2023-06-17T10:43:25.778Z,34.06
2023-06-17T10:44:25.765Z,34.10
2023-06-17T10:45:25.739Z,34.51
2023-06-17T10:46:25.833Z,35.43
2023-06-17T10:47:25.770Z,36.43
2023-06-17T10:48:25.771Z,36.86
2023-06-17T10:49:25.700Z,37.17
2023-06-17T10:50:25.692Z,36.90
2023-06-17T10:51:36.350Z,37.64
2023-06-17T10:52:26.668Z,38.84
2023-06-17T10:53:25.661Z,39.37
2023-06-17T10:54:25.696Z,40.39
2023-06-17T10:55:25.659Z,40.48
2023-06-17T10:56:25.612Z,41.08
2023-06-17T10:57:25.615Z,40.68
2023-06-17T10:58:25.653Z,40.48
2023-06-17T10:59:25.585Z,40.48
2023-06-17T11:00:25.573Z,40.98
2023-06-17T11:01:25.596Z,40.78
2023-06-17T11:02:25.609Z,40.09
2023-06-17T11:03:25.643Z,40.42
2023-06-17T11:04:25.594Z,40.94
2023-06-17T11:05:25.524Z,41.33
2023-06-17T11:06:25.534Z,41.53
2023-06-17T11:07:25.519Z,41.33
2023-06-17T11:08:25.494Z,41.52
2023-06-17T11:09:25.477Z,40.58
2023-06-17T11:10:25.674Z,40.03
2023-06-17T11:11:25.470Z,38.21
2023-06-17T11:12:25.457Z,38.31
2023-06-17T11:13:25.486Z,38.73
2023-06-17T11:14:25.429Z,38.94
2023-06-17T11:15:25.423Z,38.76
2023-06-17T11:16:25.437Z,39.58
2023-06-17T11:17:25.472Z,39.97
2023-06-17T11:18:25.411Z,39.77
2023-06-17T11:19:25.389Z,39.99
2023-06-17T11:20:25.376Z,40.19
2023-06-17T11:21:25.336Z,40.88
2023-06-17T11:22:25.342Z,41.00
2023-06-17T11:23:25.365Z,40.07
2023-06-17T11:24:25.363Z,39.46
2023-06-17T11:25:39.783Z,39.26
2023-06-17T11:26:26.305Z,39.04
2023-06-17T11:27:25.268Z,38.21
2023-06-17T11:28:25.283Z,37.27
2023-06-17T11:29:25.292Z,36.17
2023-06-17T11:30:25.258Z,36.70
2023-06-17T11:31:25.332Z,36.82
2023-06-17T11:32:25.252Z,37.32
2023-06-17T11:33:25.206Z,36.83
2023-06-17T11:34:25.224Z,36.38
2023-06-17T11:35:25.198Z,35.03
2023-06-17T11:36:25.222Z,33.03
2023-06-17T11:37:25.192Z,32.12
2023-06-17T11:38:25.197Z,32.62
2023-06-17T11:39:25.196Z,32.41
2023-06-17T11:40:25.135Z,32.09
2023-06-17T11:41:25.131Z,33.10
2023-06-17T11:42:25.150Z,33.43
2023-06-17T11:43:25.136Z,33.86
2023-06-17T11:44:25.092Z,34.44
2023-06-17T11:45:25.132Z,34.95
2023-06-17T11:46:25.115Z,33.98
2023-06-17T11:47:25.072Z,35.07
2023-06-17T11:48:25.082Z,34.67
2023-06-17T11:49:25.093Z,34.20
2023-06-17T11:50:25.041Z,33.80
2023-06-17T11:51:25.047Z,34.10
2023-06-17T11:52:25.059Z,33.70
2023-06-17T11:53:25.005Z,33.42
2023-06-17T11:54:25.038Z,33.25
2023-06-17T11:55:24.993Z,33.46
2023-06-17T11:56:24.972Z,33.97
2023-06-17T11:57:24.980Z,34.17
2023-06-17T11:58:24.943Z,34.36
2023-06-17T11:59:24.977Z,35.25
2023-06-17T12:00:24.948Z,35.45
2023-06-17T12:01:24.912Z,35.45
2023-06-17T12:02:25.010Z,35.45
2023-06-17T12:03:24.913Z,35.85
2023-06-17T12:04:24.942Z,35.66
2023-06-17T12:05:24.905Z,35.66
2023-06-17T12:06:24.898Z,36.47
2023-06-17T12:07:24.856Z,36.41
2023-06-17T12:08:24.848Z,36.62
2023-06-17T12:09:24.884Z,36.44
2023-06-17T12:10:24.968Z,36.33
2023-06-17T12:11:24.829Z,35.93
2023-06-17T12:12:24.826Z,35.34
2023-06-17T12:13:24.823Z,35.73
2023-06-17T12:14:24.802Z,34.94
2023-06-17T12:15:35.819Z,35.04
2023-06-17T12:16:25.793Z,34.56
2023-06-17T12:17:24.880Z,34.76
2023-06-17T12:18:24.728Z,34.56
2023-06-17T12:19:24.770Z,34.86
2023-06-17T12:20:24.716Z,35.06
2023-06-17T12:21:24.758Z,34.76
2023-06-17T12:22:24.696Z,34.76
2023-06-17T12:23:24.676Z,34.76
2023-06-17T12:24:24.720Z,34.76
2023-06-17T12:25:24.953Z,34.66
2023-06-17T12:26:24.654Z,34.06
2023-06-17T12:27:24.655Z,33.89
2023-06-17T12:28:24.732Z,34.18
2023-06-17T12:29:26.565Z,34.56
2023-06-17T12:30:24.621Z,35.16
2023-06-17T12:31:24.609Z,35.25
2023-06-17T12:32:24.608Z,34.95
2023-06-17T12:33:24.577Z,34.95
2023-06-17T12:34:24.582Z,34.56
2023-06-17T12:35:24.613Z,35.14
2023-06-17T12:36:24.540Z,35.85
2023-06-17T12:37:24.530Z,35.85
2023-06-17T12:38:24.528Z,35.95
2023-06-17T12:39:24.488Z,35.95
2023-06-17T12:40:24.560Z,35.95
2023-06-17T12:41:24.527Z,35.95
2023-06-17T12:42:24.454Z,35.75
2023-06-17T12:43:24.491Z,36.24
2023-06-17T12:44:24.447Z,36.24
2023-06-17T12:45:24.552Z,36.24
2023-06-17T12:46:24.442Z,36.54
2023-06-17T12:47:24.486Z,36.15
2023-06-17T12:48:24.446Z,36.56
2023-06-17T12:49:24.393Z,37.05
2023-06-17T12:50:24.421Z,36.35
2023-06-17T12:51:24.376Z,36.24
2023-06-17T12:52:24.367Z,36.35
2023-06-17T12:53:24.361Z,36.74